РУС

ENG

 
  Pireps - S7
 

Рейс SBI2135

  • Выполнял: Danil Belov
  • Аэропорт отправления: Domodedovo Airport (UUDD)
  • Аэропорт назначения: Stavropol (URMT)
  • Тип ВС: A320-214 (VP-BDT)
  • Время полёта: 01.54
  • Дата полёта: 21.01.2021
  • Маршрут: FV R11 US L169 PT R11 KOLBA A963 REMEK
  • Статус: Одобрен

Детали полёта
Gross Revenue:
(127 load / $ 178.00 per unit
$ 22, 606.00
Fuel Cost:
(4521 fuel used @ 5.1 / unit)
$ 23, 057.10


Дополнительная информация о полёте:

Лог

Aircraft Used in flight is Aerosoft Airbus A320Neo S7 VQ-BCF
13:05 Boarding
13:05 Brakes are On
13:11 Navigation Lights ON at 600 AGL
13:12 Strobe Lights ON at 600 AGL
13:12 Engine 1 Started
13:12 Engine 2 Started
13:13 Brakes are Released
13:16Flaps 1 Selected at 600ft and 15kts
13:16Flaps 2 Selected at 600ft and 15kts
13:16Flaps 3 Selected at 600ft and 16kts
13:17 Taxi Lights ON at 600 AGL
13:17 Landing Lights ON at 600 AGL
13:17 You Took off @ 161 Knots and Flaps at Position 3
Departure Weather
UUDD 211000Z 18005MPS 1100 1000N R14R/1000N R14L/1000 SN OVC012 M11/M14 Q1011 R88/490237 TEMPO 0500 SHSN BKN012CB=
13:17 You are Airborne and your Beacons are off
13:18 Landing Gear Up @ 171 Knots and 680 Feet
13:18 Taxi Lights OFF at 690 AGL
13:18Flaps 4 Selected at 1000ft and 195kts
13:18Flaps Retracted at 1050ft and 198kts
13:20 Landing Lights OFF at 5690 AGL
13:22 You exceeded maximum bank angle
14:37 Below 10000 feet you are not allowed to go over 250 knots
14:40 Landing Lights ON at 3580 AGL
14:48Flaps 1 Selected at 3260ft and 226kts
14:49Flaps 3 Selected at 3140ft and 198kts
14:49Flaps 4 Selected at 3080ft and 178kts
14:49 Landing Gear Down @ 176 Knots and 3080 Feet
14:49Flaps 5 Selected at 3050ft and 171kts
14:49 Taxi Lights ON at 2970 AGL
14:53 You Landed @ 143 Knots and with -150 Vertical Speed
Arrival Weather
URMT 210930Z 00000MPS CAVOK M03/M08 Q1027 R25/190060 NOSIG RMK QFE731
14:54Flaps Retracted at 1490ft and 29kts
14:54 Landing Lights OFF at 1490 AGL
14:55 Taxiing to gate
14:58 Brakes are On
14:58 Engine 1 Stoped
14:58 Engine 2 Stoped
14:58 Strobe Lights OFF at 1490 AGL
14:58 Taxi Lights OFF at 1490 AGL
Pirep logged with S7 Tracking 1.0.0.14



Общая оценка полета : 100%




Route Map



 
 
   
 
Новости

03.09.2020 - Полеты в MFS 2020

Спешим сообщить вам, что теперь наш S7 Pad поддерживается для полетов в новом симуляторе MFS 2020. В разделе Загрузки вы найдете FSUIPC7.rar
Инструкция для запуска прилагается!

   
 
Авторизация






Регистрация

Восстановить пароль?

Мы в соц. сетях

      



   
 





   
 


   
 


Яндекс.Метрика

www.va-s7.ru 2011-2021
Все права защищены.



Минуточку внимания!
Сайт va-s7.ru не является коммерческим проектом. Мы не имеем отношения к торговым маркам "S7" и "Globus" и их представителям.
Эмблемы на сайте являются собственностью соответствующих компаний.

аэронавигационная метеорологическая и любая другая информация с данного ресурса ни в коем случае не должна использоваться для реальных полетов